createdAt,value
2023-05-08T00:01:39.011Z,13.70
2023-05-08T00:04:08.516Z,13.70
2023-05-08T00:06:35.463Z,13.70
2023-05-08T00:09:02.159Z,13.70
2023-05-08T00:11:28.952Z,13.70
2023-05-08T00:13:56.021Z,13.70
2023-05-08T00:16:22.789Z,13.70
2023-05-08T00:18:49.752Z,13.70
2023-05-08T00:21:16.370Z,13.70
2023-05-08T00:23:43.556Z,13.70
2023-05-08T00:26:10.616Z,13.70
2023-05-08T00:28:37.720Z,13.80
2023-05-08T00:31:04.637Z,13.80
2023-05-08T00:33:31.360Z,13.80
2023-05-08T00:35:58.269Z,13.80
2023-05-08T00:38:25.487Z,13.70
2023-05-08T00:40:53.896Z,13.70
2023-05-08T00:46:02.871Z,13.70
2023-05-08T00:48:30.723Z,13.60
2023-05-08T00:50:57.482Z,13.70
2023-05-08T00:53:24.391Z,13.60
2023-05-08T00:55:51.804Z,13.60
2023-05-08T00:58:18.504Z,13.60
2023-05-08T01:00:45.554Z,13.60
2023-05-08T01:03:12.751Z,13.60
2023-05-08T01:05:39.598Z,13.60
2023-05-08T01:08:06.578Z,13.60
2023-05-08T01:13:22.820Z,13.50
2023-05-08T01:15:49.629Z,13.50
2023-05-08T01:18:16.395Z,13.50
2023-05-08T01:20:43.005Z,13.50
2023-05-08T01:23:11.617Z,13.60
2023-05-08T01:25:39.035Z,13.60
2023-05-08T01:28:05.758Z,13.60
2023-05-08T01:30:32.463Z,13.60
2023-05-08T01:32:59.285Z,13.60
2023-05-08T01:35:26.976Z,13.60
2023-05-08T01:37:53.873Z,13.50
2023-05-08T01:40:20.894Z,13.50
2023-05-08T01:42:47.734Z,13.50
2023-05-08T01:45:14.945Z,13.40
2023-05-08T01:47:41.615Z,13.40
2023-05-08T01:50:09.331Z,13.40
2023-05-08T01:52:36.369Z,13.40
2023-05-08T01:55:03.393Z,13.40
2023-05-08T01:57:30.131Z,13.40
2023-05-08T01:59:56.901Z,13.40
2023-05-08T02:02:23.675Z,13.40
2023-05-08T02:04:50.901Z,13.30
2023-05-08T02:07:17.694Z,13.30
2023-05-08T02:09:44.480Z,13.30
2023-05-08T02:12:12.123Z,13.20
2023-05-08T02:14:38.861Z,13.20
2023-05-08T02:17:06.402Z,13.30
2023-05-08T02:19:33.304Z,13.20
2023-05-08T02:22:00.047Z,13.20
2023-05-08T02:24:26.844Z,13.20
2023-05-08T02:26:53.690Z,13.10
2023-05-08T02:29:20.965Z,13.10
2023-05-08T02:31:47.831Z,13.00
2023-05-08T02:34:14.718Z,13.00
2023-05-08T02:36:41.785Z,13.00
2023-05-08T02:39:08.587Z,12.90
2023-05-08T02:41:35.241Z,12.90
2023-05-08T02:44:02.637Z,12.90
2023-05-08T02:46:29.712Z,12.90
2023-05-08T02:48:57.703Z,12.90
2023-05-08T02:51:24.556Z,12.80
2023-05-08T02:53:52.046Z,12.90
2023-05-08T02:56:19.178Z,12.90
2023-05-08T02:58:46.271Z,12.90
2023-05-08T03:01:13.138Z,12.80
2023-05-08T03:03:40.147Z,12.80
2023-05-08T03:06:07.085Z,12.90
2023-05-08T03:08:33.706Z,12.80
2023-05-08T03:11:01.327Z,12.80
2023-05-08T03:13:29.082Z,12.80
2023-05-08T03:15:56.384Z,12.80
2023-05-08T03:18:23.025Z,12.80
2023-05-08T03:20:50.140Z,12.80
2023-05-08T03:23:17.021Z,12.80
2023-05-08T03:25:43.741Z,12.80
2023-05-08T03:28:10.784Z,12.80
2023-05-08T03:30:37.953Z,12.70
2023-05-08T03:33:04.772Z,12.70
2023-05-08T03:35:31.559Z,12.70
2023-05-08T03:37:58.293Z,12.70
2023-05-08T03:40:24.998Z,12.70
2023-05-08T03:42:52.328Z,12.60
2023-05-08T03:45:19.012Z,12.60
2023-05-08T03:47:46.207Z,12.60
2023-05-08T03:50:13.333Z,12.50
2023-05-08T03:52:40.192Z,12.50
2023-05-08T03:55:06.989Z,12.50
2023-05-08T03:57:34.009Z,12.50
2023-05-08T04:00:01.866Z,12.40
2023-05-08T04:02:28.929Z,12.50
2023-05-08T04:04:56.435Z,12.40
2023-05-08T04:07:23.543Z,12.40
2023-05-08T04:09:51.354Z,12.40
2023-05-08T04:12:18.332Z,12.40
2023-05-08T04:14:45.044Z,12.30
2023-05-08T04:17:11.832Z,12.30
2023-05-08T04:19:38.677Z,12.30
2023-05-08T04:22:06.416Z,12.30
2023-05-08T04:24:33.191Z,12.30
2023-05-08T04:27:00.137Z,12.30
2023-05-08T04:29:27.315Z,12.30
2023-05-08T04:31:54.111Z,12.30
2023-05-08T04:34:21.481Z,12.30
2023-05-08T04:36:48.752Z,12.20
2023-05-08T04:39:16.931Z,12.20
2023-05-08T04:41:43.757Z,12.20
2023-05-08T04:44:11.804Z,12.20
2023-05-08T04:46:38.882Z,12.20
2023-05-08T04:49:05.902Z,12.20
2023-05-08T04:51:33.609Z,12.20
2023-05-08T04:54:01.594Z,12.20
2023-05-08T04:56:28.700Z,12.20
2023-05-08T04:58:57.065Z,12.20
2023-05-08T05:01:27.059Z,12.20
2023-05-08T05:03:54.969Z,12.20
2023-05-08T05:06:22.244Z,12.30
2023-05-08T05:08:52.252Z,12.20
2023-05-08T05:11:19.088Z,12.30
2023-05-08T05:16:27.550Z,12.30
2023-05-08T05:18:54.767Z,12.40
2023-05-08T05:21:21.802Z,12.30
2023-05-08T05:23:48.782Z,12.30
2023-05-08T05:26:15.530Z,12.40
2023-05-08T05:28:42.873Z,12.40
2023-05-08T05:31:09.823Z,12.40
2023-05-08T05:33:36.734Z,12.50
2023-05-08T05:36:05.843Z,12.50
2023-05-08T05:38:33.218Z,12.50
2023-05-08T05:41:00.296Z,12.60
2023-05-08T05:43:27.258Z,12.60
2023-05-08T05:45:57.193Z,12.70
2023-05-08T05:48:24.230Z,12.70
2023-05-08T05:50:52.122Z,12.70
2023-05-08T05:53:18.961Z,12.70
2023-05-08T05:55:45.827Z,12.70
2023-05-08T05:58:12.667Z,12.70
2023-05-08T06:00:39.607Z,12.70
2023-05-08T06:03:06.715Z,12.70
2023-05-08T06:05:33.599Z,12.70
2023-05-08T06:08:03.484Z,12.70
2023-05-08T06:13:13.010Z,12.70
2023-05-08T06:15:39.954Z,12.70
2023-05-08T06:18:06.831Z,12.70
2023-05-08T06:20:33.866Z,12.80
2023-05-08T06:23:02.003Z,12.90
2023-05-08T06:28:26.242Z,12.90
2023-05-08T06:30:53.373Z,12.90
2023-05-08T06:33:20.961Z,13.00
2023-05-08T06:35:47.917Z,13.00
2023-05-08T06:38:15.171Z,13.00
2023-05-08T06:40:42.872Z,13.10
2023-05-08T06:43:09.997Z,13.20
2023-05-08T06:45:37.785Z,13.30
2023-05-08T06:48:08.473Z,13.40
2023-05-08T06:50:35.412Z,13.40
2023-05-08T06:53:15.407Z,13.40
2023-05-08T06:55:42.607Z,13.50
2023-05-08T06:58:09.589Z,13.50
2023-05-08T07:05:57.826Z,13.80
2023-05-08T07:08:24.593Z,13.90
2023-05-08T07:10:52.339Z,14.00
2023-05-08T07:13:22.836Z,14.20
2023-05-08T07:18:39.356Z,14.40
2023-05-08T07:23:42.238Z,14.70
2023-05-08T07:26:09.030Z,14.90
2023-05-08T07:28:35.761Z,15.00
2023-05-08T07:47:53.043Z,14.80
2023-05-08T08:23:46.851Z,15.40
2023-05-08T08:28:54.306Z,15.60
2023-05-08T08:36:51.093Z,15.90
2023-05-08T08:39:17.782Z,16.00
2023-05-08T11:05:10.133Z,16.00
2023-05-08T11:07:37.678Z,15.90
2023-05-08T11:10:04.383Z,15.80
2023-05-08T11:12:32.026Z,15.80
2023-05-08T11:17:39.745Z,15.70
2023-05-08T11:20:07.396Z,15.70
2023-05-08T11:22:38.050Z,15.70
2023-05-08T11:27:39.190Z,15.80
2023-05-08T11:30:08.439Z,15.80
2023-05-08T11:32:40.705Z,15.90
2023-05-08T11:35:11.334Z,15.90
2023-05-08T11:37:38.324Z,15.90
2023-05-08T11:40:05.048Z,16.00
2023-05-08T11:45:05.533Z,16.00
2023-05-08T11:47:32.310Z,16.10
2023-05-08T11:49:59.144Z,16.10
2023-05-08T11:52:25.870Z,16.10
2023-05-08T11:54:52.683Z,16.00
2023-05-08T11:57:19.426Z,16.10
2023-05-08T11:59:47.032Z,16.00
2023-05-08T12:04:49.274Z,16.10
2023-05-08T12:07:16.521Z,16.10
2023-05-08T12:09:44.337Z,16.20
2023-05-08T12:12:10.959Z,16.30
2023-05-08T12:14:37.905Z,16.40
2023-05-08T12:17:04.921Z,16.40
2023-05-08T12:19:31.815Z,16.50
2023-05-08T12:24:47.160Z,16.70
2023-05-08T12:27:14.452Z,16.60
2023-05-08T12:29:41.676Z,16.40
2023-05-08T12:32:08.433Z,16.50
2023-05-08T12:37:10.420Z,16.40
2023-05-08T12:39:37.849Z,16.50
2023-05-08T12:44:55.695Z,16.50
2023-05-08T12:47:22.587Z,16.40
2023-05-08T12:49:50.498Z,16.40
2023-05-08T12:52:18.581Z,16.60
2023-05-08T12:57:27.479Z,16.70
2023-05-08T12:59:54.410Z,16.70
2023-05-08T13:02:26.658Z,16.80
2023-05-08T13:04:53.738Z,16.90
2023-05-08T13:07:20.666Z,17.00
2023-05-08T13:09:51.641Z,17.00
2023-05-08T13:12:18.692Z,17.00
2023-05-08T13:17:36.121Z,17.20
2023-05-08T13:20:05.921Z,17.10
2023-05-08T13:25:15.403Z,16.90
2023-05-08T13:30:24.108Z,16.80
2023-05-08T13:32:51.629Z,16.70
2023-05-08T13:35:18.751Z,16.70
2023-05-08T13:37:53.168Z,16.70
2023-05-08T13:40:19.987Z,16.70
2023-05-08T13:42:46.759Z,16.90
2023-05-08T13:47:46.951Z,16.90
2023-05-08T13:50:13.965Z,16.80
2023-05-08T13:52:41.396Z,16.70
2023-05-08T14:00:33.834Z,16.60
2023-05-08T14:03:01.068Z,16.70
2023-05-08T14:05:28.089Z,16.80
2023-05-08T14:16:01.216Z,17.20
2023-05-08T14:21:03.481Z,17.40
2023-05-08T14:26:12.294Z,17.50
2023-05-08T14:28:39.986Z,17.50
2023-05-08T14:39:20.980Z,17.70
2023-05-08T14:42:10.447Z,17.70
2023-05-08T14:50:08.500Z,17.90
2023-05-08T14:52:39.033Z,18.00
2023-05-08T14:57:42.086Z,18.10
2023-05-08T15:00:09.646Z,18.20
2023-05-08T15:02:37.027Z,18.20
2023-05-08T15:05:08.374Z,18.10
2023-05-08T15:25:02.750Z,17.70
2023-05-08T15:27:30.207Z,17.70
2023-05-08T15:29:58.135Z,17.60
2023-05-08T15:32:25.571Z,17.60
2023-05-08T15:43:11.224Z,17.50
2023-05-08T15:45:38.562Z,17.50
2023-05-08T16:04:18.171Z,17.90
2023-05-08T16:06:46.636Z,17.80
2023-05-08T16:14:44.818Z,17.80
2023-05-08T16:19:55.692Z,17.70
2023-05-08T16:22:25.989Z,17.70
2023-05-08T16:24:56.017Z,17.70
2023-05-08T16:27:23.263Z,17.80
2023-05-08T16:29:50.438Z,17.80
2023-05-08T16:32:18.691Z,17.80
2023-05-08T16:37:27.892Z,17.80
2023-05-08T16:39:57.935Z,17.80
2023-05-08T16:58:39.674Z,17.90
2023-05-08T17:01:06.847Z,17.90
2023-05-08T17:03:34.166Z,17.90
2023-05-08T17:06:01.501Z,17.90
2023-05-08T17:08:28.653Z,17.90
2023-05-08T17:24:02.731Z,17.80
2023-05-08T17:26:29.765Z,17.60
2023-05-08T17:28:56.765Z,17.60
2023-05-08T17:31:24.281Z,17.60
2023-05-08T17:33:51.459Z,17.60
2023-05-08T17:36:19.387Z,17.70
2023-05-08T17:38:47.796Z,17.70
2023-05-08T17:41:17.771Z,17.70
2023-05-08T17:43:45.521Z,17.70
2023-05-08T17:46:12.485Z,17.70
2023-05-08T17:48:40.130Z,17.70
2023-05-08T17:51:08.032Z,17.70
2023-05-08T17:56:20.939Z,17.60
2023-05-08T17:58:50.710Z,17.60
2023-05-08T18:01:17.949Z,17.60
2023-05-08T18:03:51.660Z,17.60
2023-05-08T18:06:19.253Z,17.50
2023-05-08T18:16:57.270Z,17.30
2023-05-08T18:19:24.261Z,17.30
2023-05-08T18:21:51.083Z,17.20
2023-05-08T18:24:18.592Z,17.20
2023-05-08T18:26:45.555Z,17.20
2023-05-08T18:29:12.379Z,17.10
2023-05-08T18:31:39.691Z,17.10
2023-05-08T18:34:07.573Z,17.10
2023-05-08T18:36:38.068Z,17.10
2023-05-08T18:41:48.231Z,17.00
2023-05-08T18:44:15.924Z,17.00
2023-05-08T18:49:23.661Z,16.90
2023-05-08T18:51:51.093Z,16.90
2023-05-08T18:54:17.883Z,16.80
2023-05-08T18:56:44.837Z,16.80
2023-05-08T18:59:11.756Z,16.80
2023-05-08T19:01:38.881Z,16.80
2023-05-08T19:04:06.238Z,16.70
2023-05-08T19:06:33.580Z,16.70
2023-05-08T19:09:00.497Z,16.70
2023-05-08T19:24:56.302Z,16.50
2023-05-08T19:27:23.238Z,16.50
2023-05-08T19:29:51.079Z,16.40
2023-05-08T19:32:17.959Z,16.40
2023-05-08T19:48:21.770Z,16.10
2023-05-08T19:50:55.089Z,16.20
2023-05-08T20:04:21.728Z,15.90
2023-05-08T20:06:48.953Z,15.80
2023-05-08T20:09:15.790Z,15.80
2023-05-08T20:11:42.469Z,15.80
2023-05-08T20:14:09.521Z,15.70
2023-05-08T20:16:48.751Z,15.70
2023-05-08T20:19:15.725Z,15.60
2023-05-08T20:21:43.022Z,15.60
2023-05-08T20:24:10.419Z,15.70
2023-05-08T20:26:37.434Z,15.60
2023-05-08T20:34:34.922Z,15.60
2023-05-08T20:37:04.258Z,15.50
2023-05-08T20:39:33.941Z,15.50
2023-05-08T20:42:03.470Z,15.40
2023-05-08T20:44:30.747Z,15.40
2023-05-08T20:46:57.830Z,15.40
2023-05-08T20:49:24.826Z,15.30
2023-05-08T20:51:51.686Z,15.30
2023-05-08T20:54:18.484Z,15.30
2023-05-08T20:59:21.478Z,15.20
2023-05-08T21:01:48.388Z,15.20
2023-05-08T21:04:17.227Z,15.20
2023-05-08T21:09:33.287Z,15.20
2023-05-08T21:12:00.742Z,15.10
2023-05-08T21:14:27.616Z,15.10
2023-05-08T21:16:54.681Z,15.10
2023-05-08T21:19:21.703Z,15.10
2023-05-08T21:21:48.479Z,15.10
2023-05-08T21:24:15.596Z,15.10
2023-05-08T21:26:42.588Z,15.10
2023-05-08T21:29:10.884Z,15.10
2023-05-08T21:31:38.341Z,15.00
2023-05-08T21:34:07.312Z,15.00
2023-05-08T21:36:35.540Z,15.00
2023-05-08T21:39:02.342Z,15.00
2023-05-08T21:41:29.420Z,15.00
2023-05-08T21:43:56.464Z,15.00
2023-05-08T21:46:23.271Z,15.00
2023-05-08T21:48:50.358Z,15.00
2023-05-08T21:51:17.068Z,15.00
2023-05-08T21:53:43.872Z,15.00
2023-05-08T21:56:12.072Z,14.90
2023-05-08T21:58:42.676Z,14.90
2023-05-08T22:01:09.617Z,14.80
2023-05-08T22:03:36.536Z,14.80
2023-05-08T22:06:03.378Z,14.70
2023-05-08T22:08:33.859Z,14.70
2023-05-08T22:11:00.810Z,14.70
2023-05-08T22:16:20.070Z,14.70
2023-05-08T22:18:47.098Z,14.60
2023-05-08T22:21:14.053Z,14.70
2023-05-08T22:23:41.264Z,14.70
2023-05-08T22:26:09.415Z,14.70
2023-05-08T22:28:36.333Z,14.70
2023-05-08T22:31:07.228Z,14.60
2023-05-08T22:33:34.249Z,14.60
2023-05-08T22:36:01.271Z,14.50
2023-05-08T22:38:28.062Z,14.50
2023-05-08T22:40:57.384Z,14.40
2023-05-08T22:43:25.784Z,14.40
2023-05-08T22:45:52.704Z,14.30
2023-05-08T22:48:19.728Z,14.30
2023-05-08T22:50:46.807Z,14.20
2023-05-08T22:53:13.694Z,14.20
2023-05-08T22:55:40.548Z,14.10
2023-05-08T22:58:07.412Z,14.00
2023-05-08T23:00:34.141Z,13.90
2023-05-08T23:03:00.788Z,13.90
2023-05-08T23:05:29.055Z,13.90
2023-05-08T23:07:56.316Z,13.90
2023-05-08T23:10:23.118Z,13.90
2023-05-08T23:12:50.240Z,13.90
2023-05-08T23:15:17.118Z,13.90
2023-05-08T23:17:44.241Z,13.90
2023-05-08T23:20:12.070Z,13.90
2023-05-08T23:22:38.999Z,13.90
2023-05-08T23:25:06.468Z,13.90
2023-05-08T23:27:33.371Z,13.80
2023-05-08T23:30:00.181Z,13.90
2023-05-08T23:32:27.079Z,13.90
2023-05-08T23:34:54.022Z,13.90
2023-05-08T23:37:21.254Z,13.80
2023-05-08T23:39:47.927Z,13.80
2023-05-08T23:42:15.054Z,13.80
2023-05-08T23:44:41.975Z,13.90
2023-05-08T23:49:57.642Z,13.90
2023-05-08T23:52:24.362Z,13.90
2023-05-08T23:54:51.177Z,13.90
2023-05-08T23:57:17.936Z,13.90
2023-05-08T23:59:44.836Z,13.80
